createdAt,value
2018-12-24T00:00:03.833Z,9.9
2018-12-24T00:01:03.470Z,9.9
2018-12-24T00:02:03.636Z,9.9
2018-12-24T00:03:03.078Z,9.9
2018-12-24T00:04:03.764Z,9.9
2018-12-24T00:05:03.620Z,9.9
2018-12-24T00:06:03.492Z,9.9
2018-12-24T00:07:03.003Z,9.9
2018-12-24T00:08:03.827Z,9.9
2018-12-24T00:09:03.300Z,9.9
2018-12-24T00:10:03.625Z,9.9
2018-12-24T00:11:04.000Z,9.9
2018-12-24T00:12:07.582Z,9.9
2018-12-24T00:13:03.580Z,9.9
2018-12-24T00:14:03.022Z,9.9
2018-12-24T00:15:03.602Z,9.9
2018-12-24T00:16:03.030Z,9.9
2018-12-24T00:17:03.508Z,9.9
2018-12-24T00:18:03.140Z,9.9
2018-12-24T00:19:03.622Z,9.9
2018-12-24T00:20:03.091Z,9.9
2018-12-24T00:21:03.954Z,9.8
2018-12-24T00:22:03.931Z,9.8
2018-12-24T00:23:03.583Z,9.8
2018-12-24T00:24:03.455Z,9.8
2018-12-24T00:25:02.955Z,9.8
2018-12-24T00:26:03.420Z,9.8
2018-12-24T00:27:02.755Z,9.8
2018-12-24T00:28:03.248Z,9.8
2018-12-24T00:29:03.602Z,9.8
2018-12-24T00:30:02.856Z,9.8
2018-12-24T00:31:03.621Z,9.8
2018-12-24T00:32:03.696Z,9.8
2018-12-24T00:33:03.439Z,9.8
2018-12-24T00:34:03.792Z,9.8
2018-12-24T00:35:03.100Z,9.8
2018-12-24T00:36:03.448Z,9.8
2018-12-24T00:37:03.026Z,9.8
2018-12-24T00:38:03.106Z,9.8
2018-12-24T00:39:03.237Z,9.8
2018-12-24T00:40:03.235Z,9.8
2018-12-24T00:41:03.511Z,9.8
2018-12-24T00:42:03.361Z,9.8
2018-12-24T00:43:03.216Z,9.8
2018-12-24T00:44:03.378Z,9.8
2018-12-24T00:45:02.864Z,9.9
2018-12-24T00:46:03.466Z,9.8
2018-12-24T00:47:03.767Z,9.8
2018-12-24T00:48:03.505Z,9.8
2018-12-24T00:49:03.224Z,9.8
2018-12-24T00:50:03.574Z,9.8
2018-12-24T00:51:03.773Z,9.8
2018-12-24T00:52:03.393Z,9.8
2018-12-24T00:53:03.739Z,9.8
2018-12-24T00:54:03.350Z,9.8
2018-12-24T00:55:03.615Z,9.8
2018-12-24T00:56:03.459Z,9.8
2018-12-24T00:57:02.933Z,9.8
2018-12-24T00:58:06.394Z,9.8
2018-12-24T00:59:03.655Z,9.8
2018-12-24T01:00:03.107Z,9.8
2018-12-24T01:01:03.235Z,9.9
2018-12-24T01:02:03.068Z,9.9
2018-12-24T01:03:03.240Z,9.9
2018-12-24T01:04:02.711Z,9.8
2018-12-24T01:05:03.236Z,9.8
2018-12-24T01:06:03.439Z,9.8
2018-12-24T01:07:03.185Z,9.8
2018-12-24T01:08:03.691Z,9.8
2018-12-24T01:09:02.985Z,9.8
2018-12-24T01:10:03.256Z,9.8
2018-12-24T01:11:03.624Z,9.8
2018-12-24T01:12:03.053Z,9.8
2018-12-24T01:13:03.041Z,9.8
2018-12-24T01:14:03.121Z,9.8
2018-12-24T01:15:03.780Z,9.8
2018-12-24T01:16:03.085Z,9.8
2018-12-24T01:17:03.801Z,9.8
2018-12-24T01:18:03.043Z,9.9
2018-12-24T01:19:03.568Z,9.9
2018-12-24T01:20:03.141Z,9.9
2018-12-24T01:21:02.815Z,9.9
2018-12-24T01:22:03.434Z,9.9
2018-12-24T01:23:03.725Z,9.9
2018-12-24T01:24:03.290Z,9.9
2018-12-24T01:25:03.097Z,9.9
2018-12-24T01:26:03.137Z,9.9
2018-12-24T01:27:02.710Z,9.9
2018-12-24T01:28:03.333Z,9.9
2018-12-24T01:29:03.761Z,10
2018-12-24T01:30:03.429Z,10
2018-12-24T01:31:03.251Z,10
2018-12-24T01:32:03.358Z,10
2018-12-24T01:33:03.715Z,10.1
2018-12-24T01:34:03.366Z,10
2018-12-24T01:35:03.800Z,10
2018-12-24T01:36:03.295Z,9.9
2018-12-24T01:37:03.742Z,10
2018-12-24T01:38:03.594Z,10
2018-12-24T01:39:03.523Z,10
2018-12-24T01:40:03.471Z,10.1
2018-12-24T01:41:03.726Z,10.1
2018-12-24T01:42:02.737Z,10
2018-12-24T01:43:03.027Z,10.1
2018-12-24T01:44:03.614Z,10
2018-12-24T01:45:03.217Z,10
2018-12-24T01:46:02.814Z,10
2018-12-24T01:47:03.845Z,10
2018-12-24T01:48:03.464Z,10
2018-12-24T01:49:03.015Z,10
2018-12-24T01:50:03.887Z,10
2018-12-24T01:51:03.107Z,10
2018-12-24T01:52:03.085Z,10
2018-12-24T01:53:03.015Z,9.9
2018-12-24T01:54:03.001Z,9.9
2018-12-24T01:55:03.760Z,10
2018-12-24T01:56:03.155Z,9.9
2018-12-24T01:57:03.719Z,9.9
2018-12-24T01:58:02.935Z,9.9
2018-12-24T01:59:03.477Z,10
2018-12-24T02:00:03.441Z,10.1
2018-12-24T02:01:03.596Z,10
2018-12-24T02:02:03.101Z,9.9
2018-12-24T02:03:03.305Z,10
2018-12-24T02:04:03.739Z,10.1
2018-12-24T02:05:03.568Z,10
2018-12-24T02:06:02.985Z,10
2018-12-24T02:07:03.743Z,10
2018-12-24T02:08:03.142Z,9.9
2018-12-24T02:09:03.569Z,9.9
2018-12-24T02:10:03.282Z,9.9
2018-12-24T02:11:03.548Z,9.9
2018-12-24T02:12:03.522Z,9.9
2018-12-24T02:13:03.169Z,9.9
2018-12-24T02:14:03.646Z,9.9
2018-12-24T02:15:03.008Z,10
2018-12-24T02:16:03.611Z,10.1
2018-12-24T02:17:03.297Z,10.1
2018-12-24T02:18:03.544Z,10
2018-12-24T02:19:03.284Z,10
2018-12-24T02:20:03.608Z,9.9
2018-12-24T02:21:02.907Z,10
2018-12-24T02:22:13.219Z,10
2018-12-24T02:23:03.223Z,9.9
2018-12-24T02:24:03.612Z,10
2018-12-24T02:25:03.171Z,9.9
2018-12-24T02:26:09.002Z,10
2018-12-24T02:27:03.468Z,10
2018-12-24T02:28:03.502Z,10
2018-12-24T02:29:03.503Z,10
2018-12-24T02:30:02.917Z,9.9
2018-12-24T02:31:03.334Z,9.9
2018-12-24T02:32:03.748Z,9.9
2018-12-24T02:33:03.021Z,9.9
2018-12-24T02:34:03.275Z,9.9
2018-12-24T02:35:02.945Z,9.9
2018-12-24T02:36:03.354Z,10
2018-12-24T02:37:02.753Z,10
2018-12-24T02:38:03.000Z,9.9
2018-12-24T02:39:03.596Z,10
2018-12-24T02:40:03.166Z,10.1
2018-12-24T02:41:03.273Z,10
2018-12-24T02:42:02.863Z,10
2018-12-24T02:43:03.701Z,10
2018-12-24T02:44:02.977Z,9.9
2018-12-24T02:45:03.571Z,9.9
2018-12-24T02:46:03.021Z,9.9
2018-12-24T02:47:03.088Z,9.9
2018-12-24T02:48:02.805Z,9.9
2018-12-24T02:49:03.190Z,9.9
2018-12-24T02:50:03.511Z,10
2018-12-24T02:51:03.525Z,10
2018-12-24T02:52:03.275Z,10
2018-12-24T02:53:03.398Z,10.1
2018-12-24T02:54:03.208Z,9.4
2018-12-24T02:55:03.625Z,8.1
2018-12-24T02:56:03.119Z,7.4
2018-12-24T02:57:03.792Z,7.1
2018-12-24T02:58:03.019Z,6.9
2018-12-24T02:59:03.240Z,6.8
2018-12-24T03:00:03.004Z,6.7
2018-12-24T03:01:04.087Z,6.8
2018-12-24T03:02:03.222Z,6.8
2018-12-24T03:03:03.653Z,6.8
2018-12-24T03:04:03.396Z,6.6
2018-12-24T03:05:03.742Z,6.6
2018-12-24T03:06:03.358Z,6.6
2018-12-24T03:07:02.908Z,6.6
2018-12-24T03:08:02.978Z,6.6
2018-12-24T03:09:03.751Z,6.6
2018-12-24T03:10:02.948Z,6.6
2018-12-24T03:11:03.678Z,6.6
2018-12-24T03:12:03.170Z,6.6
2018-12-24T03:13:03.487Z,6.6
2018-12-24T03:14:03.059Z,6.6
2018-12-24T03:15:03.880Z,6.6
2018-12-24T03:16:03.447Z,6.6
2018-12-24T03:17:03.060Z,6.6
2018-12-24T03:18:02.814Z,6.6
2018-12-24T03:19:06.526Z,6.6
2018-12-24T03:20:03.441Z,6.6
2018-12-24T03:21:03.062Z,6.6
2018-12-24T03:22:03.382Z,6.6
2018-12-24T03:23:03.639Z,6.6
2018-12-24T03:24:03.212Z,6.6
2018-12-24T03:25:03.768Z,6.6
2018-12-24T03:26:03.239Z,6.5
2018-12-24T03:27:03.296Z,6.4
2018-12-24T03:28:03.078Z,6.4
2018-12-24T03:29:03.439Z,6.3
2018-12-24T03:30:02.944Z,6.3
2018-12-24T03:31:03.594Z,6.2
2018-12-24T03:32:03.019Z,6.2
2018-12-24T03:33:03.012Z,6.2
2018-12-24T03:34:02.892Z,6.1
2018-12-24T03:35:03.336Z,6.1
2018-12-24T03:36:03.170Z,6.1
2018-12-24T03:37:04.032Z,6.1
2018-12-24T03:38:03.286Z,6.1
2018-12-24T03:39:03.199Z,6.1
2018-12-24T03:40:03.020Z,6.1
2018-12-24T03:41:02.737Z,6.1
2018-12-24T03:42:03.141Z,6.1
2018-12-24T03:43:13.303Z,6.1
2018-12-24T03:44:02.854Z,6
2018-12-24T03:45:03.767Z,5.9
2018-12-24T03:46:03.908Z,6
2018-12-24T03:47:02.982Z,5.9
2018-12-24T03:48:03.396Z,5.9
2018-12-24T03:49:03.280Z,5.9
2018-12-24T03:50:03.583Z,6
2018-12-24T03:51:02.942Z,5.9
2018-12-24T03:52:02.857Z,5.9
2018-12-24T03:53:03.498Z,5.9
2018-12-24T03:54:03.740Z,5.9
2018-12-24T03:55:03.880Z,5.8
2018-12-24T03:56:03.455Z,5.9
2018-12-24T03:57:03.688Z,5.8
2018-12-24T03:58:03.249Z,5.8
2018-12-24T03:59:03.050Z,5.8
2018-12-24T04:00:02.813Z,5.8
2018-12-24T04:01:02.865Z,5.8
2018-12-24T04:02:03.526Z,5.8
2018-12-24T04:03:03.380Z,5.8
2018-12-24T04:04:03.371Z,5.8
2018-12-24T04:05:03.319Z,5.8
2018-12-24T04:06:03.318Z,5.8
2018-12-24T04:07:03.094Z,5.8
2018-12-24T04:08:03.096Z,5.8
2018-12-24T04:09:03.285Z,5.8
2018-12-24T04:10:03.285Z,5.8
2018-12-24T04:11:03.723Z,5.8
2018-12-24T04:12:02.858Z,5.8
2018-12-24T04:13:03.405Z,5.8
2018-12-24T04:14:03.519Z,5.8
2018-12-24T04:15:03.205Z,5.8
2018-12-24T04:16:02.854Z,5.8
2018-12-24T04:17:03.671Z,5.8
2018-12-24T04:18:03.659Z,5.8
2018-12-24T04:19:03.690Z,5.8
2018-12-24T04:20:03.091Z,5.8
2018-12-24T04:21:03.216Z,5.8
2018-12-24T04:22:03.084Z,5.8
2018-12-24T04:23:03.799Z,5.8
2018-12-24T04:24:03.484Z,5.8
2018-12-24T04:25:03.272Z,5.7
2018-12-24T04:26:03.811Z,5.8
2018-12-24T04:27:02.838Z,5.8
2018-12-24T04:28:03.177Z,5.7
2018-12-24T04:29:03.730Z,5.8
2018-12-24T04:30:03.027Z,5.7
2018-12-24T04:31:02.861Z,5.7
2018-12-24T04:32:03.584Z,5.7
2018-12-24T04:33:03.414Z,5.7
2018-12-24T04:34:03.203Z,5.7
2018-12-24T04:35:02.879Z,5.6
2018-12-24T04:36:03.740Z,5.6
2018-12-24T04:37:02.795Z,5.6
2018-12-24T04:38:03.513Z,5.6
2018-12-24T04:39:03.268Z,5.6
2018-12-24T04:40:03.505Z,5.6
2018-12-24T04:41:03.046Z,5.6
2018-12-24T04:42:03.550Z,5.6
2018-12-24T04:43:02.962Z,5.6
2018-12-24T04:44:03.254Z,5.5
2018-12-24T04:45:03.755Z,5.5
2018-12-24T04:46:03.270Z,5.5
2018-12-24T04:47:03.680Z,5.6
2018-12-24T04:48:02.819Z,5.5
2018-12-24T04:49:03.159Z,5.4
2018-12-24T04:50:03.320Z,5.4
2018-12-24T04:51:03.608Z,5.4
2018-12-24T04:52:03.479Z,5.4
2018-12-24T04:53:03.629Z,5.4
2018-12-24T04:54:03.203Z,5.4
2018-12-24T04:55:03.610Z,5.4
2018-12-24T04:56:03.269Z,5.4
2018-12-24T04:57:03.230Z,5.3
2018-12-24T04:58:02.938Z,5.3
2018-12-24T04:59:03.411Z,5.2
2018-12-24T05:00:02.984Z,5.2
2018-12-24T05:01:02.798Z,5.2
2018-12-24T05:02:03.667Z,5.1
2018-12-24T05:03:03.625Z,5.2
2018-12-24T05:04:03.127Z,5.1
2018-12-24T05:05:04.016Z,5.1
2018-12-24T05:06:03.391Z,5.1
2018-12-24T05:07:03.427Z,5.1
2018-12-24T05:08:03.481Z,5
2018-12-24T05:09:02.779Z,5
2018-12-24T05:10:03.483Z,5
2018-12-24T05:11:02.857Z,5
2018-12-24T05:12:03.290Z,4.9
2018-12-24T05:13:02.882Z,4.9
2018-12-24T05:14:03.387Z,4.9
2018-12-24T05:15:03.030Z,4.9
2018-12-24T05:16:03.518Z,4.9
2018-12-24T05:17:03.427Z,4.8
2018-12-24T05:18:02.949Z,4.8
2018-12-24T05:19:03.221Z,4.8
2018-12-24T05:20:03.237Z,4.7
2018-12-24T05:21:03.379Z,4.7
2018-12-24T05:22:03.141Z,4.7
2018-12-24T05:23:03.437Z,4.6
2018-12-24T05:24:03.408Z,4.7
2018-12-24T05:25:03.515Z,4.6
2018-12-24T05:26:03.403Z,4.6
2018-12-24T05:27:03.427Z,4.6
2018-12-24T05:28:03.158Z,4.6
2018-12-24T05:29:03.146Z,4.5
2018-12-24T05:30:03.518Z,4.5
2018-12-24T05:31:03.517Z,4.6
2018-12-24T05:32:03.622Z,4.4
2018-12-24T05:33:03.558Z,4.5
2018-12-24T05:34:03.292Z,4.4
2018-12-24T05:35:03.772Z,4.4
2018-12-24T05:36:03.747Z,4.3
2018-12-24T05:37:03.594Z,4.4
2018-12-24T05:38:02.925Z,4.4
2018-12-24T05:39:03.442Z,4.3
2018-12-24T05:40:02.997Z,4.3
2018-12-24T05:41:02.790Z,4.3
2018-12-24T05:42:03.968Z,4.3
2018-12-24T05:43:03.604Z,4.3
2018-12-24T05:44:03.105Z,4.3
2018-12-24T05:45:03.582Z,4.3
2018-12-24T05:46:03.495Z,4.2
2018-12-24T05:47:03.608Z,4.2
2018-12-24T05:48:03.709Z,4.1
2018-12-24T05:49:03.380Z,4.1
2018-12-24T05:50:03.140Z,4.1
2018-12-24T05:51:02.750Z,4.1
2018-12-24T05:52:02.884Z,4.2
2018-12-24T05:53:08.308Z,4.1
2018-12-24T05:54:03.686Z,4.1
2018-12-24T05:55:03.120Z,4.1
2018-12-24T05:56:03.007Z,4.1
2018-12-24T05:57:02.990Z,4.1
2018-12-24T05:58:03.801Z,4.1
2018-12-24T05:59:03.086Z,4.1
2018-12-24T06:00:03.275Z,4
2018-12-24T06:01:02.699Z,4
2018-12-24T06:02:02.968Z,4
2018-12-24T06:03:03.629Z,4
2018-12-24T06:04:03.204Z,4
2018-12-24T06:05:02.841Z,4
2018-12-24T06:06:03.072Z,4
2018-12-24T06:07:03.182Z,4
2018-12-24T06:08:02.970Z,3.9
2018-12-24T06:09:03.501Z,3.9
2018-12-24T06:10:02.893Z,3.9
2018-12-24T06:11:03.583Z,3.9
2018-12-24T06:12:02.807Z,3.9
2018-12-24T06:13:02.766Z,3.9
2018-12-24T06:14:03.272Z,3.9
2018-12-24T06:15:02.943Z,3.9
2018-12-24T06:16:03.272Z,3.9
2018-12-24T06:17:02.893Z,3.9
2018-12-24T06:18:02.696Z,3.9
2018-12-24T06:19:02.729Z,3.9
2018-12-24T06:20:03.699Z,3.9
2018-12-24T06:21:03.601Z,3.9
2018-12-24T06:22:03.449Z,3.8
2018-12-24T06:23:03.297Z,3.8
2018-12-24T06:24:03.606Z,3.8
2018-12-24T06:25:03.838Z,3.8
2018-12-24T06:26:02.973Z,3.8
2018-12-24T06:27:02.974Z,3.8
2018-12-24T06:28:03.024Z,3.8
2018-12-24T06:29:03.692Z,3.8
2018-12-24T06:30:03.275Z,3.8
2018-12-24T06:31:02.897Z,3.8
2018-12-24T06:32:02.806Z,3.8
2018-12-24T06:33:03.538Z,3.8
2018-12-24T06:34:03.328Z,3.8
2018-12-24T06:35:02.798Z,3.8
2018-12-24T06:36:03.523Z,3.7
2018-12-24T06:37:03.341Z,3.6
2018-12-24T06:38:02.692Z,3.7
2018-12-24T06:39:03.326Z,3.7
2018-12-24T06:40:03.155Z,3.6
2018-12-24T06:41:03.863Z,3.7
2018-12-24T06:42:03.460Z,3.7
2018-12-24T06:43:02.964Z,3.7
2018-12-24T06:44:07.220Z,3.7
2018-12-24T06:45:03.043Z,3.7
2018-12-24T06:46:03.588Z,3.7
2018-12-24T06:47:03.142Z,3.7
2018-12-24T06:48:03.404Z,3.7
2018-12-24T06:49:02.752Z,3.7
2018-12-24T06:50:03.233Z,3.7
2018-12-24T06:51:03.866Z,3.8
2018-12-24T06:52:03.341Z,3.8
2018-12-24T06:53:02.907Z,3.7
2018-12-24T06:54:03.653Z,3.7
2018-12-24T06:55:03.436Z,3.7
2018-12-24T06:56:03.662Z,3.7
2018-12-24T06:57:03.769Z,3.7
2018-12-24T06:58:03.300Z,3.7
2018-12-24T06:59:05.511Z,3.7
2018-12-24T07:00:03.872Z,3.7
2018-12-24T07:01:03.314Z,3.7
2018-12-24T07:02:03.492Z,3.7
2018-12-24T07:03:03.335Z,3.7
2018-12-24T07:04:03.222Z,3.7
2018-12-24T07:05:03.151Z,3.7
2018-12-24T07:06:02.985Z,3.7
2018-12-24T07:07:03.044Z,3.7
2018-12-24T07:08:02.821Z,3.7
2018-12-24T07:09:03.483Z,3.7
2018-12-24T07:10:03.051Z,3.6
2018-12-24T07:11:03.705Z,3.6
2018-12-24T07:12:02.855Z,3.6
2018-12-24T07:13:03.463Z,3.6
2018-12-24T07:14:03.635Z,3.6
2018-12-24T07:15:02.988Z,3.6
2018-12-24T07:16:03.132Z,3.6
2018-12-24T07:17:03.436Z,3.6
2018-12-24T07:18:03.134Z,3.6
2018-12-24T07:19:02.849Z,3.6
2018-12-24T07:20:03.580Z,3.6
2018-12-24T07:21:03.392Z,3.6
2018-12-24T07:22:03.265Z,3.6
2018-12-24T07:23:03.191Z,3.6
2018-12-24T07:24:03.220Z,3.6
2018-12-24T07:25:03.825Z,3.6
2018-12-24T07:26:03.099Z,3.6
2018-12-24T07:27:03.380Z,3.6
2018-12-24T07:28:03.630Z,3.6
2018-12-24T07:29:03.428Z,3.6
2018-12-24T07:30:02.958Z,3.6
2018-12-24T07:31:03.274Z,3.6
2018-12-24T07:32:03.095Z,3.6
2018-12-24T07:33:03.009Z,3.6
2018-12-24T07:34:03.083Z,3.6
2018-12-24T07:35:03.101Z,3.6
2018-12-24T07:36:03.653Z,3.6
2018-12-24T07:37:03.338Z,3.6
2018-12-24T07:38:03.470Z,3.6
2018-12-24T07:39:03.160Z,3.6
2018-12-24T07:40:03.405Z,3.6
2018-12-24T07:41:03.041Z,3.6
2018-12-24T07:42:02.852Z,3.6
2018-12-24T07:43:03.506Z,3.6
2018-12-24T07:44:02.841Z,3.6
2018-12-24T07:45:03.106Z,3.6
2018-12-24T07:46:03.462Z,3.6
2018-12-24T07:47:03.166Z,3.6
2018-12-24T07:48:03.553Z,3.6
2018-12-24T07:49:02.885Z,3.6
2018-12-24T07:50:03.307Z,3.6
2018-12-24T07:51:03.031Z,3.6
2018-12-24T07:52:03.824Z,3.6
2018-12-24T07:53:03.149Z,3.6
2018-12-24T07:54:03.454Z,3.6
2018-12-24T07:55:03.556Z,3.7
2018-12-24T07:56:03.113Z,3.6
2018-12-24T07:57:02.799Z,3.7
2018-12-24T07:58:03.521Z,3.6
2018-12-24T07:59:02.973Z,3.7
2018-12-24T08:00:03.613Z,3.6
2018-12-24T08:01:02.994Z,3.6
2018-12-24T08:02:03.224Z,3.7
2018-12-24T08:03:03.726Z,3.6
2018-12-24T08:04:03.303Z,3.7
2018-12-24T08:05:03.631Z,3.8
2018-12-24T08:06:03.008Z,3.8
2018-12-24T08:07:03.591Z,3.7
2018-12-24T08:08:03.805Z,3.7
2018-12-24T08:09:03.045Z,3.8
2018-12-24T08:10:03.445Z,3.8
2018-12-24T08:11:03.641Z,3.8
2018-12-24T08:12:03.472Z,3.8
2018-12-24T08:13:03.227Z,3.8
2018-12-24T08:14:02.981Z,3.8
2018-12-24T08:15:03.100Z,3.8
2018-12-24T08:16:02.968Z,3.8
2018-12-24T08:17:03.241Z,3.8
2018-12-24T08:18:03.390Z,3.8
2018-12-24T08:19:02.999Z,3.9
2018-12-24T08:20:03.902Z,3.9
2018-12-24T08:21:04.003Z,3.9
2018-12-24T08:22:03.306Z,3.9
2018-12-24T08:23:02.782Z,3.9
2018-12-24T08:24:03.539Z,3.9
2018-12-24T08:25:03.638Z,3.9
2018-12-24T08:26:02.814Z,3.9
2018-12-24T08:27:02.862Z,3.9
2018-12-24T08:28:02.930Z,3.9
2018-12-24T08:29:03.345Z,3.9
2018-12-24T08:30:04.684Z,3.9
2018-12-24T08:31:05.812Z,3.9
2018-12-24T08:32:04.541Z,3.9
2018-12-24T08:33:02.975Z,3.9
2018-12-24T08:34:03.449Z,3.9
2018-12-24T08:35:03.041Z,3.9
2018-12-24T08:36:03.023Z,3.9
2018-12-24T08:37:03.568Z,3.9
2018-12-24T08:38:02.906Z,3.9
2018-12-24T08:39:03.191Z,3.9
2018-12-24T08:40:04.687Z,3.9
2018-12-24T08:41:03.617Z,3.9
2018-12-24T08:42:05.484Z,4
2018-12-24T08:43:03.721Z,4
2018-12-24T08:44:03.525Z,3.9
2018-12-24T08:45:03.879Z,4
2018-12-24T08:46:03.734Z,4
2018-12-24T08:47:02.707Z,4
2018-12-24T08:48:03.159Z,4
2018-12-24T08:49:03.130Z,4
2018-12-24T08:50:04.543Z,4
2018-12-24T08:51:03.274Z,3.9
2018-12-24T08:52:03.347Z,4
2018-12-24T08:53:03.578Z,3.9
2018-12-24T08:54:03.308Z,4
2018-12-24T08:55:03.007Z,4
2018-12-24T08:56:03.386Z,4
2018-12-24T08:57:03.116Z,4
2018-12-24T08:58:03.506Z,4
2018-12-24T08:59:03.279Z,4
2018-12-24T09:00:05.472Z,4
2018-12-24T09:01:03.411Z,4
2018-12-24T09:02:03.668Z,4
2018-12-24T09:03:02.909Z,4.1
2018-12-24T09:04:02.819Z,4.1
2018-12-24T09:05:03.904Z,4.1
2018-12-24T09:06:03.167Z,4.1
2018-12-24T09:07:03.428Z,4.1
2018-12-24T09:08:03.095Z,4.1
2018-12-24T09:09:03.073Z,4.1
2018-12-24T09:10:04.212Z,4.1
2018-12-24T09:11:03.417Z,4.1
2018-12-24T09:12:05.515Z,4.1
2018-12-24T09:13:02.657Z,4.1
2018-12-24T09:14:02.940Z,4.1
2018-12-24T09:15:03.364Z,4.1
2018-12-24T09:16:02.906Z,4.1
2018-12-24T09:17:03.661Z,4.1
2018-12-24T09:18:03.566Z,4.1
2018-12-24T09:19:03.525Z,4.1
2018-12-24T09:20:04.367Z,4.1
2018-12-24T09:21:03.210Z,4.1
2018-12-24T09:22:04.215Z,4.1
2018-12-24T09:23:02.820Z,4.1
2018-12-24T09:24:03.282Z,4.1
2018-12-24T09:25:03.793Z,4.1
2018-12-24T09:26:03.198Z,4.1
2018-12-24T09:27:03.505Z,4.1
2018-12-24T09:28:03.237Z,4.1
2018-12-24T09:29:03.749Z,4.1
2018-12-24T09:30:03.558Z,4.1
2018-12-24T09:31:03.028Z,4.1
2018-12-24T09:32:03.513Z,4.1
2018-12-24T09:33:03.531Z,4.1
2018-12-24T09:34:03.005Z,4.2
2018-12-24T09:35:03.508Z,4.1
2018-12-24T09:36:03.612Z,4.1
2018-12-24T09:37:03.035Z,4.1
2018-12-24T09:38:03.730Z,4.1
2018-12-24T09:39:03.420Z,4.1
2018-12-24T09:40:03.294Z,4.1
2018-12-24T09:41:03.819Z,4.1
2018-12-24T09:42:03.441Z,4.1
2018-12-24T09:43:03.002Z,4.2
2018-12-24T09:44:03.639Z,4.2
2018-12-24T09:45:03.233Z,4.1
2018-12-24T09:46:03.739Z,4.1
2018-12-24T09:47:03.668Z,4.2
2018-12-24T09:48:04.174Z,4.2
2018-12-24T09:49:03.295Z,4.2
2018-12-24T09:50:03.852Z,4.2
2018-12-24T09:51:03.660Z,4.2
2018-12-24T09:52:03.420Z,4.2
2018-12-24T09:53:02.976Z,4.1
2018-12-24T09:54:03.151Z,4.2
2018-12-24T09:55:03.318Z,4.1
2018-12-24T09:56:03.633Z,4.2
2018-12-24T09:57:02.848Z,4.1
2018-12-24T09:58:03.213Z,4.2
2018-12-24T09:59:02.805Z,4.1
2018-12-24T10:00:02.875Z,4.1
2018-12-24T10:01:03.276Z,4.1
2018-12-24T10:02:03.312Z,4.1
2018-12-24T10:03:03.293Z,4.1
2018-12-24T10:04:03.467Z,4.2
2018-12-24T10:05:03.453Z,4.2
2018-12-24T10:06:03.156Z,4.2
2018-12-24T10:07:03.118Z,4.2
2018-12-24T10:08:02.939Z,4.2
2018-12-24T10:09:03.131Z,4.3
2018-12-24T10:10:03.307Z,4.3
2018-12-24T10:11:03.294Z,4.3
2018-12-24T10:12:04.025Z,4.2
2018-12-24T10:13:03.494Z,4.3
2018-12-24T10:14:02.743Z,4.3
2018-12-24T10:15:08.385Z,4.3
2018-12-24T10:16:03.247Z,4.3
2018-12-24T10:17:03.116Z,4.3
2018-12-24T10:18:03.528Z,4.3
2018-12-24T10:19:02.947Z,4.3
2018-12-24T10:20:03.391Z,4.3
2018-12-24T10:21:03.529Z,4.3
2018-12-24T10:22:03.505Z,4.3
2018-12-24T10:23:03.298Z,4.3
2018-12-24T10:24:03.703Z,4.3
2018-12-24T10:25:03.285Z,4.3
2018-12-24T10:26:03.597Z,4.4
2018-12-24T10:27:03.466Z,4.4
2018-12-24T10:28:03.716Z,4.4
2018-12-24T10:29:03.195Z,4.4
2018-12-24T10:30:03.759Z,4.4
2018-12-24T10:31:03.005Z,4.4
2018-12-24T10:32:03.864Z,4.4
2018-12-24T10:33:02.929Z,4.4
2018-12-24T10:34:03.808Z,4.5
2018-12-24T10:35:03.934Z,4.5
2018-12-24T10:36:02.956Z,4.5
2018-12-24T10:37:03.724Z,4.5
2018-12-24T10:38:02.988Z,4.5
2018-12-24T10:39:03.449Z,4.6
2018-12-24T10:40:03.747Z,4.6
2018-12-24T10:41:03.378Z,4.6
2018-12-24T10:42:02.793Z,4.6
2018-12-24T10:43:03.556Z,4.6
2018-12-24T10:44:03.521Z,4.6
2018-12-24T10:45:03.896Z,4.6
2018-12-24T10:46:03.497Z,4.6
2018-12-24T10:47:02.736Z,4.6
2018-12-24T10:48:02.752Z,4.6
2018-12-24T10:49:03.273Z,4.6
2018-12-24T10:50:03.799Z,4.6
2018-12-24T10:51:03.403Z,4.6
2018-12-24T10:52:03.492Z,4.7
2018-12-24T10:53:02.900Z,4.6
2018-12-24T10:54:03.519Z,4.7
2018-12-24T10:55:03.409Z,4.6
2018-12-24T10:56:03.296Z,4.6
2018-12-24T10:57:03.186Z,4.6
2018-12-24T10:58:03.364Z,4.6
2018-12-24T10:59:02.907Z,4.7
2018-12-24T11:00:03.203Z,4.7
2018-12-24T11:01:03.605Z,4.8
2018-12-24T11:02:03.530Z,4.8
2018-12-24T11:03:03.804Z,4.8
2018-12-24T11:04:03.726Z,4.9
2018-12-24T11:05:03.260Z,4.9
2018-12-24T11:06:03.085Z,4.9
2018-12-24T11:07:03.022Z,4.8
2018-12-24T11:08:03.417Z,4.9
2018-12-24T11:09:03.298Z,4.9
2018-12-24T11:10:03.280Z,4.9
2018-12-24T11:11:02.983Z,4.9
2018-12-24T11:12:03.059Z,4.8
2018-12-24T11:13:03.323Z,4.8
2018-12-24T11:14:03.355Z,4.8
2018-12-24T11:15:03.768Z,4.8
2018-12-24T11:16:03.489Z,4.8
2018-12-24T11:17:03.338Z,4.8
2018-12-24T11:18:03.498Z,4.8
2018-12-24T11:19:03.223Z,4.8
2018-12-24T11:20:03.780Z,4.8
2018-12-24T11:21:03.042Z,4.8
2018-12-24T11:22:03.446Z,4.9
2018-12-24T11:23:03.019Z,4.9
2018-12-24T11:24:02.949Z,5.1
2018-12-24T11:25:03.033Z,5.1
2018-12-24T11:26:03.749Z,5.1
2018-12-24T11:27:03.472Z,5.1
2018-12-24T11:28:03.488Z,4.9
2018-12-24T11:29:03.311Z,4.9
2018-12-24T11:30:03.146Z,4.9
2018-12-24T11:31:03.577Z,4.8
2018-12-24T11:32:03.612Z,4.8
2018-12-24T11:33:03.226Z,4.9
2018-12-24T11:34:03.399Z,4.9
2018-12-24T11:35:03.277Z,4.9
2018-12-24T11:36:03.147Z,4.9
2018-12-24T11:37:02.873Z,4.9
2018-12-24T11:38:03.449Z,4.8
2018-12-24T11:39:03.823Z,4.6
2018-12-24T11:40:03.598Z,4.6
2018-12-24T11:41:03.637Z,4.7
2018-12-24T11:42:03.069Z,4.7
2018-12-24T11:43:02.926Z,4.6
2018-12-24T11:44:02.977Z,4.6
2018-12-24T11:45:03.697Z,4.6
2018-12-24T11:46:03.655Z,4.6
2018-12-24T11:47:03.461Z,4.6
2018-12-24T11:48:03.085Z,4.4
2018-12-24T11:49:02.875Z,4.4
2018-12-24T11:50:03.803Z,4.4
2018-12-24T11:51:03.224Z,4.4
2018-12-24T11:52:03.630Z,4.4
2018-12-24T11:53:03.140Z,4.4
2018-12-24T11:54:02.686Z,4.4
2018-12-24T11:55:03.831Z,4.4
2018-12-24T11:56:03.091Z,4.5
2018-12-24T11:57:03.590Z,4.6
2018-12-24T11:58:03.333Z,4.6
2018-12-24T11:59:03.715Z,4.6
2018-12-24T12:00:03.432Z,4.6
2018-12-24T12:01:02.979Z,4.5
2018-12-24T12:02:10.417Z,4.5
2018-12-24T12:03:03.856Z,4.5
2018-12-24T12:04:02.935Z,4.5
2018-12-24T12:05:03.523Z,4.5
2018-12-24T12:06:03.489Z,4.4
2018-12-24T12:07:03.579Z,4.3
2018-12-24T12:08:03.423Z,4.3
2018-12-24T12:09:03.104Z,4.4
2018-12-24T12:10:03.529Z,4.4
2018-12-24T12:11:03.569Z,4.4
2018-12-24T12:12:03.114Z,4.4
2018-12-24T12:13:03.179Z,4.5
2018-12-24T12:14:03.491Z,4.5
2018-12-24T12:15:03.629Z,4.4
2018-12-24T12:16:03.184Z,4.4
2018-12-24T12:17:03.502Z,4.4
2018-12-24T12:18:03.724Z,4.4
2018-12-24T12:19:03.447Z,4.4
2018-12-24T12:20:03.674Z,4.4
2018-12-24T12:21:03.618Z,4.5
2018-12-24T12:22:02.909Z,4.5
2018-12-24T12:23:03.068Z,4.6
2018-12-24T12:24:03.676Z,4.6
2018-12-24T12:25:03.650Z,4.8
2018-12-24T12:26:03.784Z,4.8
2018-12-24T12:27:03.189Z,5
2018-12-24T12:28:03.476Z,5
2018-12-24T12:29:02.912Z,4.9
2018-12-24T12:30:03.567Z,5
2018-12-24T12:31:03.022Z,5
2018-12-24T12:32:03.636Z,5
2018-12-24T12:33:02.803Z,5.1
2018-12-24T12:34:03.594Z,5
2018-12-24T12:35:03.025Z,4.9
2018-12-24T12:36:03.241Z,4.9
2018-12-24T12:37:03.549Z,4.9
2018-12-24T12:38:02.963Z,4.9
2018-12-24T12:39:03.624Z,4.7
2018-12-24T12:40:02.996Z,4.6
2018-12-24T12:41:03.693Z,4.6
2018-12-24T12:42:03.572Z,4.6
2018-12-24T12:43:03.612Z,4.6
2018-12-24T12:44:03.407Z,4.7
2018-12-24T12:45:02.993Z,4.7
2018-12-24T12:46:03.972Z,4.8
2018-12-24T12:47:03.492Z,4.9
2018-12-24T12:48:03.533Z,4.8
2018-12-24T12:49:03.210Z,5
2018-12-24T12:50:03.746Z,5.1
2018-12-24T12:51:03.053Z,5.1
2018-12-24T12:52:03.697Z,5.1
2018-12-24T12:53:03.616Z,5.3
2018-12-24T12:54:02.985Z,5.2
2018-12-24T12:55:03.732Z,5.2
2018-12-24T12:56:04.115Z,5.3
2018-12-24T12:57:03.781Z,5.3
2018-12-24T12:58:03.450Z,5.3
2018-12-24T12:59:03.291Z,5.4
2018-12-24T13:00:03.416Z,5.4
2018-12-24T13:01:03.015Z,5.5
2018-12-24T13:02:03.247Z,5.6
2018-12-24T13:03:04.290Z,5.6
2018-12-24T13:04:03.817Z,5.9
2018-12-24T13:05:03.133Z,5.9
2018-12-24T13:06:03.689Z,6
2018-12-24T13:07:03.919Z,5.9
2018-12-24T13:08:02.992Z,5.9
2018-12-24T13:09:03.185Z,5.9
2018-12-24T13:10:04.761Z,6
2018-12-24T13:11:03.054Z,6.2
2018-12-24T13:12:03.480Z,6.3
2018-12-24T13:13:02.815Z,6.3
2018-12-24T13:14:02.988Z,6.3
2018-12-24T13:15:02.800Z,6.3
2018-12-24T13:16:03.037Z,6.3
2018-12-24T13:17:03.687Z,6.3
2018-12-24T13:18:03.217Z,6.3
2018-12-24T13:19:03.640Z,6.3
2018-12-24T13:20:03.514Z,6.1
2018-12-24T13:21:03.428Z,6.1
2018-12-24T13:22:04.748Z,5.9
2018-12-24T13:23:02.927Z,5.9
2018-12-24T13:24:03.626Z,5.8
2018-12-24T13:25:03.415Z,5.7
2018-12-24T13:26:03.031Z,5.8
2018-12-24T13:27:03.068Z,5.8
2018-12-24T13:28:05.371Z,5.7
2018-12-24T13:29:03.452Z,5.6
2018-12-24T13:31:47.590Z,5.5
2018-12-24T13:32:03.568Z,5.5
2018-12-24T13:33:02.915Z,5.1
2018-12-24T13:34:03.192Z,5.2
2018-12-24T13:35:03.276Z,5.1
2018-12-24T13:36:03.071Z,5.1
2018-12-24T13:37:03.872Z,5.1
2018-12-24T13:38:02.935Z,5.1
2018-12-24T13:39:03.307Z,5.1
2018-12-24T13:40:03.140Z,5
2018-12-24T13:41:03.401Z,4.9
2018-12-24T13:42:03.530Z,5
2018-12-24T13:43:03.454Z,4.9
2018-12-24T13:44:03.496Z,4.9
2018-12-24T13:45:03.685Z,4.8
2018-12-24T13:46:08.535Z,4.8
2018-12-24T13:47:02.915Z,4.8
2018-12-24T13:48:03.719Z,4.8
2018-12-24T13:49:03.606Z,4.7
2018-12-24T13:50:03.618Z,4.6
2018-12-24T13:52:50.789Z,4.6